sensor_id;sensor_type;location;lat;lon;timestamp;P1;durP1;ratioP1;P2;durP2;ratioP2
43042;SDS011;28667;50.758;6.096;2023-05-20T00:02:11;1.52;;;1.15;;
43042;SDS011;28667;50.758;6.096;2023-05-20T00:04:36;4.20;;;1.40;;
43042;SDS011;28667;50.758;6.096;2023-05-20T00:07:04;2.38;;;1.48;;
43042;SDS011;28667;50.758;6.096;2023-05-20T00:09:30;3.88;;;1.20;;
43042;SDS011;28667;50.758;6.096;2023-05-20T00:11:56;1.27;;;1.15;;
43042;SDS011;28667;50.758;6.096;2023-05-20T00:14:21;2.28;;;1.35;;
43042;SDS011;28667;50.758;6.096;2023-05-20T00:16:47;2.92;;;1.48;;
43042;SDS011;28667;50.758;6.096;2023-05-20T00:19:13;1.45;;;1.20;;
43042;SDS011;28667;50.758;6.096;2023-05-20T00:21:39;4.25;;;1.40;;
43042;SDS011;28667;50.758;6.096;2023-05-20T00:24:04;2.08;;;1.08;;
43042;SDS011;28667;50.758;6.096;2023-05-20T00:26:30;2.08;;;1.30;;
43042;SDS011;28667;50.758;6.096;2023-05-20T00:28:57;2.38;;;1.60;;
43042;SDS011;28667;50.758;6.096;2023-05-20T00:31:23;2.00;;;1.13;;
43042;SDS011;28667;50.758;6.096;2023-05-20T00:33:48;1.55;;;1.35;;
43042;SDS011;28667;50.758;6.096;2023-05-20T00:36:14;1.35;;;1.17;;
43042;SDS011;28667;50.758;6.096;2023-05-20T00:38:40;2.15;;;1.10;;
43042;SDS011;28667;50.758;6.096;2023-05-20T00:41:05;2.83;;;1.67;;
43042;SDS011;28667;50.758;6.096;2023-05-20T00:43:31;2.53;;;1.38;;
43042;SDS011;28667;50.758;6.096;2023-05-20T00:45:57;4.63;;;1.67;;
43042;SDS011;28667;50.758;6.096;2023-05-20T00:48:23;1.63;;;1.30;;
43042;SDS011;28667;50.758;6.096;2023-05-20T00:50:48;3.28;;;1.33;;
43042;SDS011;28667;50.758;6.096;2023-05-20T00:53:15;3.00;;;1.75;;
43042;SDS011;28667;50.758;6.096;2023-05-20T00:55:42;1.63;;;1.10;;
43042;SDS011;28667;50.758;6.096;2023-05-20T00:58:09;1.92;;;1.42;;
43042;SDS011;28667;50.758;6.096;2023-05-20T01:00:35;2.63;;;1.25;;
43042;SDS011;28667;50.758;6.096;2023-05-20T01:03:01;2.10;;;1.65;;
43042;SDS011;28667;50.758;6.096;2023-05-20T01:05:27;2.67;;;1.33;;
43042;SDS011;28667;50.758;6.096;2023-05-20T01:07:53;2.10;;;1.58;;
43042;SDS011;28667;50.758;6.096;2023-05-20T01:10:19;1.73;;;1.13;;
43042;SDS011;28667;50.758;6.096;2023-05-20T01:12:47;2.30;;;1.60;;
43042;SDS011;28667;50.758;6.096;2023-05-20T01:15:18;4.35;;;1.50;;
43042;SDS011;28667;50.758;6.096;2023-05-20T01:17:46;2.38;;;1.20;;
43042;SDS011;28667;50.758;6.096;2023-05-20T01:20:16;1.42;;;1.33;;
43042;SDS011;28667;50.758;6.096;2023-05-20T01:22:52;5.30;;;1.65;;
43042;SDS011;28667;50.758;6.096;2023-05-20T01:25:19;2.72;;;1.38;;
43042;SDS011;28667;50.758;6.096;2023-05-20T01:27:46;1.35;;;1.25;;
43042;SDS011;28667;50.758;6.096;2023-05-20T01:30:13;2.42;;;1.40;;
43042;SDS011;28667;50.758;6.096;2023-05-20T01:32:41;2.90;;;1.63;;
43042;SDS011;28667;50.758;6.096;2023-05-20T01:35:12;1.40;;;1.30;;
43042;SDS011;28667;50.758;6.096;2023-05-20T01:37:41;2.85;;;1.40;;
43042;SDS011;28667;50.758;6.096;2023-05-20T01:40:11;2.53;;;1.40;;
43042;SDS011;28667;50.758;6.096;2023-05-20T01:42:40;3.10;;;1.38;;
43042;SDS011;28667;50.758;6.096;2023-05-20T01:45:07;3.00;;;1.67;;
43042;SDS011;28667;50.758;6.096;2023-05-20T01:47:33;3.00;;;1.63;;
43042;SDS011;28667;50.758;6.096;2023-05-20T01:49:59;1.98;;;1.60;;
43042;SDS011;28667;50.758;6.096;2023-05-20T01:52:25;2.28;;;1.80;;
43042;SDS011;28667;50.758;6.096;2023-05-20T01:54:51;2.58;;;1.30;;
43042;SDS011;28667;50.758;6.096;2023-05-20T01:57:18;2.33;;;1.40;;
43042;SDS011;28667;50.758;6.096;2023-05-20T01:59:45;1.95;;;1.50;;
43042;SDS011;28667;50.758;6.096;2023-05-20T02:02:12;2.35;;;1.27;;
43042;SDS011;28667;50.758;6.096;2023-05-20T02:04:38;3.95;;;1.63;;
43042;SDS011;28667;50.758;6.096;2023-05-20T02:07:04;2.08;;;1.27;;
43042;SDS011;28667;50.758;6.096;2023-05-20T02:09:30;2.13;;;1.40;;
43042;SDS011;28667;50.758;6.096;2023-05-20T02:11:56;3.33;;;1.90;;
43042;SDS011;28667;50.758;6.096;2023-05-20T02:14:22;1.70;;;1.60;;
43042;SDS011;28667;50.758;6.096;2023-05-20T02:16:47;1.52;;;1.42;;
43042;SDS011;28667;50.758;6.096;2023-05-20T02:19:13;2.40;;;1.60;;
43042;SDS011;28667;50.758;6.096;2023-05-20T02:21:43;1.27;;;1.17;;
43042;SDS011;28667;50.758;6.096;2023-05-20T02:24:11;1.60;;;1.40;;
43042;SDS011;28667;50.758;6.096;2023-05-20T02:26:37;2.30;;;1.40;;
43042;SDS011;28667;50.758;6.096;2023-05-20T02:29:03;2.95;;;1.15;;
43042;SDS011;28667;50.758;6.096;2023-05-20T02:31:29;2.20;;;1.30;;
43042;SDS011;28667;50.758;6.096;2023-05-20T02:33:55;1.85;;;1.40;;
43042;SDS011;28667;50.758;6.096;2023-05-20T02:36:20;2.22;;;1.70;;
43042;SDS011;28667;50.758;6.096;2023-05-20T02:38:46;3.08;;;1.65;;
43042;SDS011;28667;50.758;6.096;2023-05-20T02:41:12;2.63;;;1.55;;
43042;SDS011;28667;50.758;6.096;2023-05-20T02:43:40;3.00;;;1.50;;
43042;SDS011;28667;50.758;6.096;2023-05-20T02:46:08;2.78;;;1.90;;
43042;SDS011;28667;50.758;6.096;2023-05-20T02:48:34;2.20;;;1.50;;
43042;SDS011;28667;50.758;6.096;2023-05-20T02:51:00;3.60;;;1.77;;
43042;SDS011;28667;50.758;6.096;2023-05-20T02:53:25;2.13;;;1.58;;
43042;SDS011;28667;50.758;6.096;2023-05-20T02:55:51;2.78;;;1.52;;
43042;SDS011;28667;50.758;6.096;2023-05-20T02:58:17;1.95;;;1.50;;
43042;SDS011;28667;50.758;6.096;2023-05-20T03:00:43;2.75;;;2.15;;
43042;SDS011;28667;50.758;6.096;2023-05-20T03:03:09;1.90;;;1.60;;
43042;SDS011;28667;50.758;6.096;2023-05-20T03:05:35;1.83;;;1.65;;
43042;SDS011;28667;50.758;6.096;2023-05-20T03:08:05;6.45;;;1.40;;
43042;SDS011;28667;50.758;6.096;2023-05-20T03:10:34;2.53;;;1.50;;
43042;SDS011;28667;50.758;6.096;2023-05-20T03:13:01;2.50;;;1.80;;
43042;SDS011;28667;50.758;6.096;2023-05-20T03:15:27;4.28;;;1.75;;
43042;SDS011;28667;50.758;6.096;2023-05-20T03:17:53;3.53;;;1.95;;
43042;SDS011;28667;50.758;6.096;2023-05-20T03:20:18;1.27;;;1.17;;
43042;SDS011;28667;50.758;6.096;2023-05-20T03:22:45;1.95;;;1.50;;
43042;SDS011;28667;50.758;6.096;2023-05-20T03:25:10;3.40;;;1.40;;
43042;SDS011;28667;50.758;6.096;2023-05-20T03:27:36;2.42;;;1.60;;
43042;SDS011;28667;50.758;6.096;2023-05-20T03:30:02;2.00;;;1.80;;
43042;SDS011;28667;50.758;6.096;2023-05-20T03:32:30;4.05;;;1.10;;
43042;SDS011;28667;50.758;6.096;2023-05-20T03:34:55;1.70;;;1.60;;
43042;SDS011;28667;50.758;6.096;2023-05-20T03:37:22;2.20;;;1.25;;
43042;SDS011;28667;50.758;6.096;2023-05-20T03:39:48;3.22;;;1.63;;
43042;SDS011;28667;50.758;6.096;2023-05-20T03:42:15;2.55;;;2.08;;
43042;SDS011;28667;50.758;6.096;2023-05-20T03:44:41;1.67;;;1.50;;
43042;SDS011;28667;50.758;6.096;2023-05-20T03:47:07;2.95;;;1.55;;
43042;SDS011;28667;50.758;6.096;2023-05-20T03:49:33;2.28;;;1.73;;
43042;SDS011;28667;50.758;6.096;2023-05-20T03:51:58;3.17;;;2.17;;
43042;SDS011;28667;50.758;6.096;2023-05-20T03:54:24;1.65;;;1.48;;
43042;SDS011;28667;50.758;6.096;2023-05-20T03:56:52;2.70;;;1.48;;
43042;SDS011;28667;50.758;6.096;2023-05-20T03:59:18;3.85;;;1.75;;
43042;SDS011;28667;50.758;6.096;2023-05-20T04:01:44;2.53;;;1.85;;
43042;SDS011;28667;50.758;6.096;2023-05-20T04:04:10;2.10;;;2.00;;
43042;SDS011;28667;50.758;6.096;2023-05-20T04:06:36;3.63;;;1.90;;
43042;SDS011;28667;50.758;6.096;2023-05-20T04:09:01;1.60;;;1.50;;
43042;SDS011;28667;50.758;6.096;2023-05-20T04:11:28;1.85;;;1.42;;
43042;SDS011;28667;50.758;6.096;2023-05-20T04:13:54;4.75;;;1.50;;
43042;SDS011;28667;50.758;6.096;2023-05-20T04:16:20;4.05;;;1.70;;
43042;SDS011;28667;50.758;6.096;2023-05-20T04:18:45;4.40;;;1.65;;
43042;SDS011;28667;50.758;6.096;2023-05-20T04:21:12;3.58;;;2.15;;
43042;SDS011;28667;50.758;6.096;2023-05-20T04:23:38;2.40;;;1.83;;
43042;SDS011;28667;50.758;6.096;2023-05-20T04:26:04;2.65;;;1.73;;
43042;SDS011;28667;50.758;6.096;2023-05-20T04:28:30;1.55;;;1.45;;
43042;SDS011;28667;50.758;6.096;2023-05-20T04:30:57;2.30;;;1.67;;
43042;SDS011;28667;50.758;6.096;2023-05-20T04:33:25;4.25;;;2.08;;
43042;SDS011;28667;50.758;6.096;2023-05-20T04:35:51;4.88;;;2.10;;
43042;SDS011;28667;50.758;6.096;2023-05-20T04:38:17;3.47;;;1.92;;
43042;SDS011;28667;50.758;6.096;2023-05-20T04:40:43;2.35;;;1.80;;
43042;SDS011;28667;50.758;6.096;2023-05-20T04:43:09;2.42;;;1.88;;
43042;SDS011;28667;50.758;6.096;2023-05-20T04:45:35;2.88;;;2.08;;
43042;SDS011;28667;50.758;6.096;2023-05-20T04:48:01;3.15;;;2.10;;
43042;SDS011;28667;50.758;6.096;2023-05-20T04:50:27;4.30;;;1.67;;
43042;SDS011;28667;50.758;6.096;2023-05-20T04:52:53;1.80;;;1.48;;
43042;SDS011;28667;50.758;6.096;2023-05-20T04:55:19;2.33;;;1.95;;
43042;SDS011;28667;50.758;6.096;2023-05-20T04:57:46;3.78;;;1.90;;
43042;SDS011;28667;50.758;6.096;2023-05-20T05:00:12;3.30;;;1.38;;
43042;SDS011;28667;50.758;6.096;2023-05-20T05:02:39;2.17;;;1.55;;
43042;SDS011;28667;50.758;6.096;2023-05-20T05:05:05;3.45;;;2.10;;
43042;SDS011;28667;50.758;6.096;2023-05-20T05:07:31;1.30;;;1.05;;
43042;SDS011;28667;50.758;6.096;2023-05-20T05:09:56;2.00;;;1.38;;
43042;SDS011;28667;50.758;6.096;2023-05-20T05:12:22;1.75;;;1.65;;
43042;SDS011;28667;50.758;6.096;2023-05-20T05:14:48;2.55;;;1.58;;
43042;SDS011;28667;50.758;6.096;2023-05-20T05:17:14;1.63;;;1.52;;
43042;SDS011;28667;50.758;6.096;2023-05-20T05:19:40;2.75;;;1.25;;
43042;SDS011;28667;50.758;6.096;2023-05-20T05:22:06;3.75;;;1.58;;
43042;SDS011;28667;50.758;6.096;2023-05-20T05:24:33;1.33;;;1.05;;
43042;SDS011;28667;50.758;6.096;2023-05-20T05:26:59;1.42;;;1.33;;
43042;SDS011;28667;50.758;6.096;2023-05-20T05:29:25;2.47;;;1.80;;
43042;SDS011;28667;50.758;6.096;2023-05-20T05:31:51;2.60;;;2.03;;
43042;SDS011;28667;50.758;6.096;2023-05-20T05:34:17;2.28;;;2.08;;
43042;SDS011;28667;50.758;6.096;2023-05-20T05:36:42;3.08;;;2.15;;
43042;SDS011;28667;50.758;6.096;2023-05-20T05:39:08;2.33;;;2.13;;
43042;SDS011;28667;50.758;6.096;2023-05-20T05:41:35;2.67;;;2.08;;
43042;SDS011;28667;50.758;6.096;2023-05-20T05:44:00;4.20;;;2.50;;
43042;SDS011;28667;50.758;6.096;2023-05-20T05:46:27;3.20;;;2.25;;
43042;SDS011;28667;50.758;6.096;2023-05-20T05:48:52;2.65;;;2.45;;
43042;SDS011;28667;50.758;6.096;2023-05-20T05:51:18;3.70;;;2.42;;
43042;SDS011;28667;50.758;6.096;2023-05-20T05:53:46;5.85;;;2.60;;
43042;SDS011;28667;50.758;6.096;2023-05-20T05:56:12;5.10;;;2.30;;
43042;SDS011;28667;50.758;6.096;2023-05-20T05:58:38;3.63;;;1.83;;
43042;SDS011;28667;50.758;6.096;2023-05-20T06:01:05;3.08;;;2.28;;
43042;SDS011;28667;50.758;6.096;2023-05-20T06:03:31;4.03;;;2.47;;
43042;SDS011;28667;50.758;6.096;2023-05-20T06:05:57;2.45;;;1.83;;
43042;SDS011;28667;50.758;6.096;2023-05-20T06:08:23;5.00;;;2.83;;
43042;SDS011;28667;50.758;6.096;2023-05-20T06:10:49;3.20;;;2.30;;
43042;SDS011;28667;50.758;6.096;2023-05-20T06:13:15;4.47;;;2.20;;
43042;SDS011;28667;50.758;6.096;2023-05-20T06:15:41;2.58;;;2.20;;
43042;SDS011;28667;50.758;6.096;2023-05-20T06:18:07;3.70;;;2.95;;
43042;SDS011;28667;50.758;6.096;2023-05-20T06:20:33;2.53;;;2.25;;
43042;SDS011;28667;50.758;6.096;2023-05-20T06:22:59;3.13;;;2.83;;
43042;SDS011;28667;50.758;6.096;2023-05-20T06:25:32;3.95;;;2.42;;
43042;SDS011;28667;50.758;6.096;2023-05-20T06:27:58;3.42;;;2.72;;
43042;SDS011;28667;50.758;6.096;2023-05-20T06:30:25;3.72;;;2.45;;
43042;SDS011;28667;50.758;6.096;2023-05-20T06:32:50;2.50;;;2.30;;
43042;SDS011;28667;50.758;6.096;2023-05-20T06:35:16;3.08;;;2.50;;
43042;SDS011;28667;50.758;6.096;2023-05-20T06:37:42;3.33;;;2.05;;
43042;SDS011;28667;50.758;6.096;2023-05-20T06:40:08;4.75;;;2.05;;
43042;SDS011;28667;50.758;6.096;2023-05-20T06:42:35;2.10;;;1.83;;
43042;SDS011;28667;50.758;6.096;2023-05-20T06:45:02;4.75;;;2.30;;
43042;SDS011;28667;50.758;6.096;2023-05-20T06:47:50;2.70;;;2.25;;
43042;SDS011;28667;50.758;6.096;2023-05-20T06:50:18;4.93;;;2.40;;
43042;SDS011;28667;50.758;6.096;2023-05-20T06:52:44;3.38;;;2.38;;
43042;SDS011;28667;50.758;6.096;2023-05-20T06:55:11;3.35;;;2.20;;
43042;SDS011;28667;50.758;6.096;2023-05-20T06:57:38;3.15;;;2.30;;
43042;SDS011;28667;50.758;6.096;2023-05-20T07:00:04;4.88;;;2.78;;
43042;SDS011;28667;50.758;6.096;2023-05-20T07:02:33;3.58;;;2.35;;
43042;SDS011;28667;50.758;6.096;2023-05-20T07:04:59;3.28;;;2.10;;
43042;SDS011;28667;50.758;6.096;2023-05-20T07:07:25;3.10;;;2.13;;
43042;SDS011;28667;50.758;6.096;2023-05-20T07:09:51;3.08;;;2.78;;
43042;SDS011;28667;50.758;6.096;2023-05-20T07:12:18;2.63;;;2.30;;
43042;SDS011;28667;50.758;6.096;2023-05-20T07:14:44;6.65;;;2.75;;
43042;SDS011;28667;50.758;6.096;2023-05-20T07:17:10;2.40;;;1.88;;
43042;SDS011;28667;50.758;6.096;2023-05-20T07:19:37;2.42;;;1.98;;
43042;SDS011;28667;50.758;6.096;2023-05-20T07:22:03;3.85;;;2.80;;
43042;SDS011;28667;50.758;6.096;2023-05-20T07:24:50;4.75;;;2.70;;
43042;SDS011;28667;50.758;6.096;2023-05-20T07:27:17;3.33;;;2.50;;
43042;SDS011;28667;50.758;6.096;2023-05-20T07:29:42;2.38;;;2.00;;
43042;SDS011;28667;50.758;6.096;2023-05-20T07:32:09;3.15;;;2.42;;
43042;SDS011;28667;50.758;6.096;2023-05-20T07:34:36;3.75;;;1.88;;
43042;SDS011;28667;50.758;6.096;2023-05-20T07:37:01;2.35;;;2.05;;
43042;SDS011;28667;50.758;6.096;2023-05-20T07:39:28;4.45;;;2.08;;
43042;SDS011;28667;50.758;6.096;2023-05-20T07:41:53;2.13;;;1.80;;
43042;SDS011;28667;50.758;6.096;2023-05-20T07:44:19;3.10;;;2.15;;
43042;SDS011;28667;50.758;6.096;2023-05-20T07:46:49;4.70;;;1.90;;
43042;SDS011;28667;50.758;6.096;2023-05-20T07:49:17;3.67;;;2.10;;
43042;SDS011;28667;50.758;6.096;2023-05-20T07:51:44;2.88;;;2.10;;
43042;SDS011;28667;50.758;6.096;2023-05-20T07:54:12;2.08;;;1.80;;
43042;SDS011;28667;50.758;6.096;2023-05-20T07:56:39;4.07;;;1.85;;
43042;SDS011;28667;50.758;6.096;2023-05-20T07:59:07;4.38;;;2.42;;
43042;SDS011;28667;50.758;6.096;2023-05-20T08:01:40;2.03;;;1.80;;
43042;SDS011;28667;50.758;6.096;2023-05-20T08:04:06;1.63;;;1.52;;
43042;SDS011;28667;50.758;6.096;2023-05-20T08:06:33;2.83;;;2.20;;
43042;SDS011;28667;50.758;6.096;2023-05-20T08:09:00;4.35;;;2.58;;
43042;SDS011;28667;50.758;6.096;2023-05-20T08:11:31;3.78;;;2.17;;
43042;SDS011;28667;50.758;6.096;2023-05-20T08:13:57;3.85;;;2.28;;
43042;SDS011;28667;50.758;6.096;2023-05-20T08:16:25;4.55;;;2.47;;
43042;SDS011;28667;50.758;6.096;2023-05-20T08:18:51;2.92;;;2.42;;
43042;SDS011;28667;50.758;6.096;2023-05-20T08:21:19;2.85;;;2.00;;
43042;SDS011;28667;50.758;6.096;2023-05-20T08:23:46;3.25;;;2.40;;
43042;SDS011;28667;50.758;6.096;2023-05-20T08:26:11;4.00;;;2.50;;
43042;SDS011;28667;50.758;6.096;2023-05-20T08:28:40;3.92;;;2.55;;
43042;SDS011;28667;50.758;6.096;2023-05-20T08:31:06;3.88;;;2.70;;
43042;SDS011;28667;50.758;6.096;2023-05-20T08:33:32;2.92;;;2.30;;
43042;SDS011;28667;50.758;6.096;2023-05-20T08:35:58;5.63;;;2.47;;
43042;SDS011;28667;50.758;6.096;2023-05-20T08:38:23;5.65;;;2.30;;
43042;SDS011;28667;50.758;6.096;2023-05-20T08:40:53;3.08;;;2.28;;
43042;SDS011;28667;50.758;6.096;2023-05-20T08:43:21;2.72;;;2.30;;
43042;SDS011;28667;50.758;6.096;2023-05-20T08:45:47;8.02;;;2.58;;
43042;SDS011;28667;50.758;6.096;2023-05-20T08:48:16;5.50;;;2.55;;
43042;SDS011;28667;50.758;6.096;2023-05-20T08:50:43;3.20;;;2.90;;
43042;SDS011;28667;50.758;6.096;2023-05-20T08:53:14;5.57;;;2.50;;
43042;SDS011;28667;50.758;6.096;2023-05-20T08:55:53;2.70;;;2.35;;
43042;SDS011;28667;50.758;6.096;2023-05-20T08:58:22;3.17;;;2.50;;
43042;SDS011;28667;50.758;6.096;2023-05-20T09:00:49;3.60;;;2.63;;
43042;SDS011;28667;50.758;6.096;2023-05-20T09:03:17;3.20;;;2.65;;
43042;SDS011;28667;50.758;6.096;2023-05-20T09:05:44;2.28;;;2.08;;
43042;SDS011;28667;50.758;6.096;2023-05-20T09:08:11;4.97;;;2.80;;
43042;SDS011;28667;50.758;6.096;2023-05-20T09:10:37;3.55;;;2.72;;
43042;SDS011;28667;50.758;6.096;2023-05-20T09:13:04;3.10;;;2.05;;
43042;SDS011;28667;50.758;6.096;2023-05-20T09:15:31;6.80;;;2.53;;
43042;SDS011;28667;50.758;6.096;2023-05-20T09:17:58;3.63;;;2.60;;
43042;SDS011;28667;50.758;6.096;2023-05-20T09:20:26;2.70;;;2.33;;
43042;SDS011;28667;50.758;6.096;2023-05-20T09:23:02;7.82;;;2.13;;
43042;SDS011;28667;50.758;6.096;2023-05-20T09:25:29;2.97;;;2.22;;
43042;SDS011;28667;50.758;6.096;2023-05-20T09:27:55;4.32;;;2.30;;
43042;SDS011;28667;50.758;6.096;2023-05-20T09:30:21;4.72;;;3.45;;
43042;SDS011;28667;50.758;6.096;2023-05-20T09:32:53;2.72;;;2.05;;
43042;SDS011;28667;50.758;6.096;2023-05-20T09:35:20;4.72;;;2.40;;
43042;SDS011;28667;50.758;6.096;2023-05-20T09:37:48;3.28;;;2.20;;
43042;SDS011;28667;50.758;6.096;2023-05-20T09:40:26;4.28;;;2.42;;
43042;SDS011;28667;50.758;6.096;2023-05-20T09:45:19;4.97;;;2.65;;
43042;SDS011;28667;50.758;6.096;2023-05-20T09:47:46;3.42;;;2.47;;
43042;SDS011;28667;50.758;6.096;2023-05-20T09:50:14;4.15;;;2.40;;
43042;SDS011;28667;50.758;6.096;2023-05-20T09:52:41;7.20;;;2.90;;
43042;SDS011;28667;50.758;6.096;2023-05-20T09:55:08;5.75;;;3.03;;
43042;SDS011;28667;50.758;6.096;2023-05-20T09:57:35;2.55;;;2.30;;
43042;SDS011;28667;50.758;6.096;2023-05-20T10:00:05;2.75;;;2.47;;
43042;SDS011;28667;50.758;6.096;2023-05-20T10:02:43;2.63;;;1.98;;
43042;SDS011;28667;50.758;6.096;2023-05-20T10:05:18;4.18;;;2.08;;
43042;SDS011;28667;50.758;6.096;2023-05-20T10:10:51;3.60;;;2.55;;
43042;SDS011;28667;50.758;6.096;2023-05-20T10:17:06;6.70;;;2.53;;
43042;SDS011;28667;50.758;6.096;2023-05-20T10:19:38;2.58;;;2.17;;
43042;SDS011;28667;50.758;6.096;2023-05-20T10:22:08;4.80;;;2.80;;
43042;SDS011;28667;50.758;6.096;2023-05-20T10:24:37;3.85;;;2.70;;
43042;SDS011;28667;50.758;6.096;2023-05-20T10:27:14;2.85;;;2.28;;
43042;SDS011;28667;50.758;6.096;2023-05-20T10:29:42;3.37;;;2.50;;
43042;SDS011;28667;50.758;6.096;2023-05-20T10:32:31;3.35;;;2.83;;
43042;SDS011;28667;50.758;6.096;2023-05-20T10:35:01;3.20;;;2.67;;
43042;SDS011;28667;50.758;6.096;2023-05-20T10:37:31;3.33;;;2.35;;
43042;SDS011;28667;50.758;6.096;2023-05-20T10:42:37;4.55;;;2.83;;
43042;SDS011;28667;50.758;6.096;2023-05-20T10:45:04;5.10;;;2.50;;
43042;SDS011;28667;50.758;6.096;2023-05-20T10:47:31;2.30;;;2.03;;
43042;SDS011;28667;50.758;6.096;2023-05-20T10:49:57;2.92;;;2.60;;
43042;SDS011;28667;50.758;6.096;2023-05-20T10:52:23;2.75;;;2.47;;
43042;SDS011;28667;50.758;6.096;2023-05-20T10:57:20;3.00;;;2.42;;
43042;SDS011;28667;50.758;6.096;2023-05-20T10:59:46;8.85;;;3.00;;
43042;SDS011;28667;50.758;6.096;2023-05-20T11:02:13;4.35;;;2.55;;
43042;SDS011;28667;50.758;6.096;2023-05-20T11:04:43;4.32;;;2.88;;
43042;SDS011;28667;50.758;6.096;2023-05-20T11:07:10;4.55;;;3.08;;
43042;SDS011;28667;50.758;6.096;2023-05-20T11:09:35;4.80;;;2.70;;
43042;SDS011;28667;50.758;6.096;2023-05-20T11:12:01;3.70;;;2.33;;
43042;SDS011;28667;50.758;6.096;2023-05-20T11:14:28;2.67;;;2.47;;
43042;SDS011;28667;50.758;6.096;2023-05-20T11:16:57;5.57;;;2.65;;
43042;SDS011;28667;50.758;6.096;2023-05-20T11:19:24;2.65;;;2.45;;
43042;SDS011;28667;50.758;6.096;2023-05-20T11:21:51;4.40;;;3.00;;
43042;SDS011;28667;50.758;6.096;2023-05-20T11:24:26;4.57;;;2.50;;
43042;SDS011;28667;50.758;6.096;2023-05-20T11:26:53;2.83;;;2.50;;
43042;SDS011;28667;50.758;6.096;2023-05-20T11:29:20;3.60;;;2.30;;
43042;SDS011;28667;50.758;6.096;2023-05-20T11:31:49;3.08;;;2.65;;
43042;SDS011;28667;50.758;6.096;2023-05-20T11:34:18;4.38;;;2.63;;
43042;SDS011;28667;50.758;6.096;2023-05-20T11:36:48;4.07;;;2.67;;
43042;SDS011;28667;50.758;6.096;2023-05-20T11:39:23;4.22;;;2.60;;
43042;SDS011;28667;50.758;6.096;2023-05-20T11:41:51;3.75;;;2.70;;
43042;SDS011;28667;50.758;6.096;2023-05-20T11:44:18;3.83;;;2.50;;
43042;SDS011;28667;50.758;6.096;2023-05-20T11:46:45;5.05;;;3.05;;
43042;SDS011;28667;50.758;6.096;2023-05-20T11:49:11;5.20;;;2.58;;
43042;SDS011;28667;50.758;6.096;2023-05-20T11:51:41;5.43;;;2.92;;
43042;SDS011;28667;50.758;6.096;2023-05-20T11:54:08;4.85;;;2.53;;
43042;SDS011;28667;50.758;6.096;2023-05-20T11:56:38;6.05;;;3.15;;
43042;SDS011;28667;50.758;6.096;2023-05-20T11:59:07;3.95;;;2.70;;
43042;SDS011;28667;50.758;6.096;2023-05-20T12:01:37;3.67;;;3.00;;
43042;SDS011;28667;50.758;6.096;2023-05-20T12:04:09;3.63;;;2.75;;
43042;SDS011;28667;50.758;6.096;2023-05-20T12:06:37;4.22;;;2.45;;
43042;SDS011;28667;50.758;6.096;2023-05-20T12:09:04;5.00;;;2.92;;
43042;SDS011;28667;50.758;6.096;2023-05-20T12:11:38;2.97;;;2.55;;
43042;SDS011;28667;50.758;6.096;2023-05-20T12:14:05;4.72;;;3.13;;
43042;SDS011;28667;50.758;6.096;2023-05-20T12:16:32;3.80;;;2.78;;
43042;SDS011;28667;50.758;6.096;2023-05-20T12:18:59;3.50;;;2.58;;
43042;SDS011;28667;50.758;6.096;2023-05-20T12:21:25;4.75;;;3.10;;
43042;SDS011;28667;50.758;6.096;2023-05-20T12:23:52;2.70;;;2.50;;
43042;SDS011;28667;50.758;6.096;2023-05-20T12:26:24;5.15;;;2.88;;
43042;SDS011;28667;50.758;6.096;2023-05-20T12:28:51;3.95;;;2.60;;
43042;SDS011;28667;50.758;6.096;2023-05-20T12:31:17;3.58;;;2.70;;
43042;SDS011;28667;50.758;6.096;2023-05-20T12:33:43;6.15;;;2.78;;
43042;SDS011;28667;50.758;6.096;2023-05-20T12:36:09;4.32;;;2.65;;
43042;SDS011;28667;50.758;6.096;2023-05-20T12:38:34;4.20;;;3.25;;
43042;SDS011;28667;50.758;6.096;2023-05-20T12:41:01;4.07;;;2.95;;
43042;SDS011;28667;50.758;6.096;2023-05-20T12:43:26;3.92;;;3.35;;
43042;SDS011;28667;50.758;6.096;2023-05-20T12:45:52;2.35;;;1.98;;
43042;SDS011;28667;50.758;6.096;2023-05-20T12:48:18;14.32;;;3.47;;
43042;SDS011;28667;50.758;6.096;2023-05-20T12:50:44;5.07;;;3.28;;
43042;SDS011;28667;50.758;6.096;2023-05-20T12:53:10;4.65;;;3.15;;
43042;SDS011;28667;50.758;6.096;2023-05-20T12:55:36;4.45;;;3.20;;
43042;SDS011;28667;50.758;6.096;2023-05-20T12:58:02;3.83;;;2.97;;
43042;SDS011;28667;50.758;6.096;2023-05-20T13:00:28;5.28;;;3.72;;
43042;SDS011;28667;50.758;6.096;2023-05-20T13:02:54;7.80;;;3.10;;
43042;SDS011;28667;50.758;6.096;2023-05-20T13:05:19;2.58;;;2.38;;
43042;SDS011;28667;50.758;6.096;2023-05-20T13:07:46;3.78;;;3.05;;
43042;SDS011;28667;50.758;6.096;2023-05-20T13:10:13;4.80;;;3.42;;
43042;SDS011;28667;50.758;6.096;2023-05-20T13:12:38;3.30;;;3.00;;
43042;SDS011;28667;50.758;6.096;2023-05-20T13:15:09;4.25;;;3.35;;
43042;SDS011;28667;50.758;6.096;2023-05-20T13:17:36;3.35;;;2.60;;
43042;SDS011;28667;50.758;6.096;2023-05-20T13:20:02;4.72;;;3.78;;
43042;SDS011;28667;50.758;6.096;2023-05-20T13:22:28;6.63;;;3.72;;
43042;SDS011;28667;50.758;6.096;2023-05-20T13:24:54;4.03;;;3.17;;
43042;SDS011;28667;50.758;6.096;2023-05-20T13:27:20;4.78;;;3.58;;
43042;SDS011;28667;50.758;6.096;2023-05-20T13:29:45;4.82;;;2.88;;
43042;SDS011;28667;50.758;6.096;2023-05-20T13:32:11;6.13;;;3.78;;
43042;SDS011;28667;50.758;6.096;2023-05-20T13:34:37;3.80;;;3.05;;
43042;SDS011;28667;50.758;6.096;2023-05-20T13:37:03;4.07;;;3.00;;
43042;SDS011;28667;50.758;6.096;2023-05-20T13:39:29;15.80;;;5.32;;
43042;SDS011;28667;50.758;6.096;2023-05-20T13:41:55;4.30;;;3.25;;
43042;SDS011;28667;50.758;6.096;2023-05-20T13:44:21;5.88;;;4.07;;
43042;SDS011;28667;50.758;6.096;2023-05-20T13:46:46;7.30;;;4.15;;
43042;SDS011;28667;50.758;6.096;2023-05-20T13:49:12;5.85;;;3.35;;
43042;SDS011;28667;50.758;6.096;2023-05-20T13:51:38;8.63;;;3.75;;
43042;SDS011;28667;50.758;6.096;2023-05-20T13:54:04;3.70;;;3.30;;
43042;SDS011;28667;50.758;6.096;2023-05-20T13:56:30;7.30;;;3.97;;
43042;SDS011;28667;50.758;6.096;2023-05-20T13:58:56;4.32;;;3.22;;
43042;SDS011;28667;50.758;6.096;2023-05-20T14:01:22;4.72;;;3.65;;
43042;SDS011;28667;50.758;6.096;2023-05-20T14:03:48;4.05;;;3.22;;
43042;SDS011;28667;50.758;6.096;2023-05-20T14:06:14;4.00;;;3.30;;
43042;SDS011;28667;50.758;6.096;2023-05-20T14:08:43;5.90;;;3.03;;
43042;SDS011;28667;50.758;6.096;2023-05-20T14:11:10;6.22;;;3.63;;
43042;SDS011;28667;50.758;6.096;2023-05-20T14:13:36;5.32;;;3.33;;
43042;SDS011;28667;50.758;6.096;2023-05-20T14:16:01;5.93;;;3.50;;
43042;SDS011;28667;50.758;6.096;2023-05-20T14:18:27;4.03;;;3.63;;
43042;SDS011;28667;50.758;6.096;2023-05-20T14:20:53;7.28;;;3.30;;
43042;SDS011;28667;50.758;6.096;2023-05-20T14:23:20;3.25;;;2.80;;
43042;SDS011;28667;50.758;6.096;2023-05-20T14:25:46;4.18;;;3.55;;
43042;SDS011;28667;50.758;6.096;2023-05-20T14:28:12;4.88;;;4.13;;
43042;SDS011;28667;50.758;6.096;2023-05-20T14:30:38;4.78;;;3.25;;
43042;SDS011;28667;50.758;6.096;2023-05-20T14:33:03;5.18;;;3.58;;
43042;SDS011;28667;50.758;6.096;2023-05-20T14:35:29;3.92;;;3.53;;
43042;SDS011;28667;50.758;6.096;2023-05-20T14:37:55;7.00;;;3.30;;
43042;SDS011;28667;50.758;6.096;2023-05-20T14:40:21;6.07;;;4.20;;
43042;SDS011;28667;50.758;6.096;2023-05-20T14:42:46;4.10;;;3.30;;
43042;SDS011;28667;50.758;6.096;2023-05-20T14:45:12;4.93;;;3.20;;
43042;SDS011;28667;50.758;6.096;2023-05-20T14:47:38;4.28;;;3.13;;
43042;SDS011;28667;50.758;6.096;2023-05-20T14:50:05;3.30;;;2.90;;
43042;SDS011;28667;50.758;6.096;2023-05-20T14:52:31;5.05;;;3.38;;
43042;SDS011;28667;50.758;6.096;2023-05-20T14:54:57;4.20;;;3.35;;
43042;SDS011;28667;50.758;6.096;2023-05-20T14:57:22;5.45;;;3.40;;
43042;SDS011;28667;50.758;6.096;2023-05-20T14:59:48;5.00;;;3.60;;
43042;SDS011;28667;50.758;6.096;2023-05-20T15:02:17;4.88;;;3.70;;